Time;durP1;ratioP1;P1;durP2;ratioP2;P2;SDS_P1;SDS_P2;PMS_P1;PMS_P2;Temp;Humidity;BMP_temperature;BMP_pressure;BME280_temperature;BME280_humidity;BME280_pressure;Samples;Min_cycle;Max_cycle;Signal;HPM_P1;HPM_P2
2021/07/29 00:00:56;;;;;;;22.83;19.98;;;;;;;19.09;85.17;98910.22;4979947;28;20057;-63
2021/07/29 00:03:21;;;;;;;23.63;19.83;;;;;;;19.04;85.18;98907.03;4978214;28;20107;-63
2021/07/29 00:05:49;;;;;;;23.02;19.20;;;;;;;19.04;85.02;98891.97;5012805;28;20049;-62
2021/07/29 00:08:16;;;;;;;23.42;19.67;;;;;;;19.06;84.92;98899.81;4995992;28;20037;-64
2021/07/29 00:10:42;;;;;;;21.90;19.60;;;;;;;19.14;84.83;98908.06;4979825;28;20052;-62
2021/07/29 00:13:08;;;;;;;23.33;19.75;;;;;;;19.13;84.87;98906.38;5013355;28;20046;-61
2021/07/29 00:15:34;;;;;;;20.83;18.75;;;;;;;19.15;85.06;98908.91;4964060;28;20513;-62
2021/07/29 00:20:27;;;;;;;21.15;19.10;;;;;;;19.09;85.43;98894.31;4994324;28;20507;-62
2021/07/29 00:22:57;;;;;;;21.75;19.00;;;;;;;19.09;85.30;98894.31;5011256;28;20041;-63
2021/07/29 00:25:24;;;;;;;24.70;18.67;;;;;;;19.03;85.39;98878.84;5010960;28;20085;-60
2021/07/29 00:27:51;;;;;;;22.80;19.38;;;;;;;19.10;85.69;98893.34;4993918;28;20046;-61
2021/07/29 00:30:19;;;;;;;21.63;19.30;;;;;;;19.07;85.74;98885.63;5013000;28;20042;-62
2021/07/29 00:32:45;;;;;;;22.42;19.08;;;;;;;19.10;85.37;98888.03;4995526;28;20051;-63
2021/07/29 00:35:14;;;;;;;23.77;19.55;;;;;;;19.04;85.90;98886.69;4996288;28;20153;-62
2021/07/29 00:37:48;;;;;;;20.80;18.38;;;;;;;19.10;85.58;98879.25;4995417;28;20137;-62
2021/07/29 00:40:16;;;;;;;19.17;17.33;;;;;;;19.09;85.56;98867.78;4995519;28;20072;-62
2021/07/29 00:42:41;;;;;;;21.13;18.80;;;;;;;19.14;85.60;98881.56;5011877;28;20567;-61
2021/07/29 00:45:08;;;;;;;21.50;19.33;;;;;;;19.08;85.62;98886.47;4994330;28;20129;-63
2021/07/29 00:47:35;;;;;;;21.35;19.35;;;;;;;19.08;85.83;98882.00;4995325;28;20094;-62
2021/07/29 00:50:01;;;;;;;26.17;20.70;;;;;;;19.08;86.08;98882.00;4994944;28;20045;-62
2021/07/29 00:52:27;;;;;;;21.85;19.55;;;;;;;19.04;85.73;98869.94;4978667;28;20069;-61
2021/07/29 00:54:53;;;;;;;21.77;19.08;;;;;;;19.00;85.98;98860.50;5013003;28;20446;-62
2021/07/29 00:57:20;;;;;;;23.08;20.77;;;;;;;19.07;85.89;98867.06;5013313;28;20478;-62
2021/07/29 00:59:46;;;;;;;22.05;19.67;;;;;;;19.07;86.15;98872.38;4995541;28;20108;-62
2021/07/29 01:02:12;;;;;;;22.77;20.38;;;;;;;19.06;86.09;98868.00;4995858;28;20479;-62
2021/07/29 01:04:38;;;;;;;24.27;21.67;;;;;;;19.04;86.11;98864.63;4979110;28;20577;-62
2021/07/29 01:07:04;;;;;;;23.02;19.88;;;;;;;19.07;86.45;98864.41;4962406;28;20422;-64
2021/07/29 01:09:30;;;;;;;25.27;21.42;;;;;;;19.08;86.21;98863.44;5010775;28;20042;-62
2021/07/29 01:11:56;;;;;;;23.90;21.40;;;;;;;18.96;86.61;98845.78;5011680;28;20068;-62
2021/07/29 01:14:22;;;;;;;24.20;21.63;;;;;;;19.05;86.68;98859.22;4979438;28;20045;-62
2021/07/29 01:16:48;;;;;;;27.50;23.88;;;;;;;19.03;86.66;98857.63;5012295;28;20111;-63
2021/07/29 01:19:14;;;;;;;27.13;24.25;;;;;;;19.01;87.02;98856.91;5011009;28;20513;-62
2021/07/29 01:21:40;;;;;;;27.02;24.23;;;;;;;19.03;86.93;98862.94;4978747;28;20143;-61
2021/07/29 01:24:06;;;;;;;26.60;23.70;;;;;;;19.08;86.83;98852.00;5011312;28;20097;-62
2021/07/29 01:26:33;;;;;;;27.38;24.42;;;;;;;18.99;86.88;98835.81;5011020;28;20128;-62
2021/07/29 01:29:00;;;;;;;28.05;25.08;;;;;;;18.94;87.06;98830.00;5010823;28;20034;-62
2021/07/29 01:31:26;;;;;;;27.35;24.52;;;;;;;19.06;87.01;98857.41;5009421;28;20046;-63
2021/07/29 01:33:53;;;;;;;28.13;25.20;;;;;;;19.07;87.18;98852.97;5011785;28;20099;-62
2021/07/29 01:36:19;;;;;;;29.27;24.55;;;;;;;19.03;87.46;98853.19;5011456;28;20045;-62
2021/07/29 01:38:45;;;;;;;28.15;25.10;;;;;;;19.09;87.67;98851.03;4994590;28;20624;-62
2021/07/29 01:41:11;;;;;;;31.17;26.40;;;;;;;18.97;87.29;98842.19;4962094;28;20132;-63
2021/07/29 01:43:37;;;;;;;30.85;26.38;;;;;;;19.02;87.45;98853.28;4995408;28;20129;-62
2021/07/29 01:46:03;;;;;;;30.30;24.38;;;;;;;19.06;87.28;98838.84;5013640;28;20121;-62
2021/07/29 01:48:30;;;;;;;25.88;21.95;;;;;;;19.22;86.92;98855.31;5011951;28;20041;-62
2021/07/29 01:50:55;;;;;;;32.03;25.33;;;;;;;19.18;87.03;98845.06;5012429;28;20519;-63
2021/07/29 01:53:21;;;;;;;28.17;23.75;;;;;;;19.20;87.24;98851.94;5011590;28;20145;-62
2021/07/29 01:55:48;;;;;;;25.75;23.05;;;;;;;19.32;87.07;98853.72;4962118;28;20050;-62
2021/07/29 01:58:15;;;;;;;26.95;23.95;;;;;;;19.26;86.98;98846.19;5011715;28;20049;-62
2021/07/29 02:00:43;;;;;;;31.75;24.15;;;;;;;19.15;87.39;98834.69;4995437;28;20130;-62
2021/07/29 02:03:09;;;;;;;29.20;23.05;;;;;;;19.24;86.83;98834.84;5010730;28;20442;-62
2021/07/29 02:05:34;;;;;;;25.70;22.30;;;;;;;19.33;86.94;98850.09;4994947;28;20045;-62
2021/07/29 02:08:01;;;;;;;16.73;14.85;;;;;;;20.18;83.85;98853.41;5012338;28;20104;-62
2021/07/29 02:10:27;;;;;;;24.20;17.45;;;;;;;19.80;83.75;98827.13;5011088;28;20555;-64
2021/07/29 02:12:58;;;;;;;29.20;19.17;;;;;;;19.90;84.21;98857.31;4961748;28;20157;-63
2021/07/29 02:15:23;;;;;;;16.92;14.68;;;;;;;20.33;82.75;98856.66;5010865;28;20042;-63
2021/07/29 02:17:49;;;;;;;16.42;14.63;;;;;;;20.47;81.78;98853.78;4977709;28;20046;-63
2021/07/29 02:20:15;;;;;;;19.55;15.35;;;;;;;20.22;82.83;98859.31;5011702;28;20045;-62
2021/07/29 02:22:41;;;;;;;19.45;17.35;;;;;;;20.03;83.77;98843.09;4978866;28;20050;-62
2021/07/29 02:25:08;;;;;;;20.42;13.68;;;;;;;20.40;82.42;98855.25;5010110;28;20060;-62
2021/07/29 02:27:34;;;;;;;16.02;14.23;;;;;;;20.54;81.78;98855.00;4977316;28;20076;-62
2021/07/29 02:30:00;;;;;;;20.85;15.27;;;;;;;20.51;82.22;98857.91;5011723;28;20480;-60
2021/07/29 02:32:27;;;;;;;16.17;14.57;;;;;;;20.49;82.02;98853.69;5010834;28;20438;-62
2021/07/29 02:34:53;;;;;;;21.52;16.33;;;;;;;20.31;82.88;98846.16;4994163;28;20509;-64
2021/07/29 02:37:19;;;;;;;17.30;12.52;;;;;;;20.68;81.37;98861.03;4993070;28;20042;-62
2021/07/29 02:39:45;;;;;;;15.43;13.82;;;;;;;20.57;81.64;98856.56;4960667;28;20073;-62
2021/07/29 02:42:11;;;;;;;13.85;12.48;;;;;;;20.56;81.50;98846.91;4994081;28;20046;-63
2021/07/29 02:44:37;;;;;;;16.20;14.45;;;;;;;20.46;82.25;98856.56;5009880;28;20046;-62
2021/07/29 02:47:03;;;;;;;17.58;13.35;;;;;;;20.46;81.95;98854.75;4992868;28;20562;-62
2021/07/29 02:49:29;;;;;;;15.90;14.38;;;;;;;20.43;82.05;98847.03;5010250;28;20092;-62
2021/07/29 02:51:55;;;;;;;16.52;14.05;;;;;;;20.43;82.84;98857.66;5011386;28;20053;-62
2021/07/29 02:54:21;;;;;;;18.20;15.48;;;;;;;20.23;83.53;98856.53;4976856;28;20153;-61
2021/07/29 02:56:47;;;;;;;17.48;13.85;;;;;;;20.03;84.66;98854.56;5011946;28;20045;-62
2021/07/29 02:59:12;;;;;;;18.80;14.80;;;;;;;20.24;84.08;98857.38;5011095;28;20072;-63
2021/07/29 03:01:38;;;;;;;13.20;11.48;;;;;;;20.45;83.29;98849.56;4961804;28;20422;-62
2021/07/29 03:04:04;;;;;;;15.75;11.82;;;;;;;20.41;82.79;98856.09;5010575;28;20609;-62
2021/07/29 03:06:29;;;;;;;14.07;12.68;;;;;;;20.20;83.45;98853.28;4977725;28;20073;-62
2021/07/29 03:08:55;;;;;;;15.85;12.38;;;;;;;20.33;84.15;98872.59;4993650;28;20073;-62
2021/07/29 03:11:21;;;;;;;15.18;13.20;;;;;;;20.33;83.74;98867.28;5011128;28;20465;-63
2021/07/29 03:13:47;;;;;;;15.13;13.52;;;;;;;20.00;84.64;98855.63;4945766;28;20084;-63
2021/07/29 03:16:12;;;;;;;16.55;13.30;;;;;;;19.91;85.40;98859.00;5011107;28;20042;-62
2021/07/29 03:18:38;;;;;;;13.85;11.18;;;;;;;19.89;85.67;98874.19;4993554;28;20049;-62
2021/07/29 03:21:08;;;;;;;15.45;13.85;;;;;;;19.80;86.28;98880.19;5009746;28;20056;-69
2021/07/29 03:23:35;;;;;;;13.05;11.65;;;;;;;19.69;86.14;98866.91;4992476;28;20132;-62
2021/07/29 03:26:01;;;;;;;15.88;11.07;;;;;;;19.86;86.13;98869.13;5008955;28;20462;-61
2021/07/29 03:28:26;;;;;;;9.75;8.27;;;;;;;20.12;85.40;98868.97;5010451;28;20070;-63
2021/07/29 03:30:55;;;;;;;8.82;7.72;;;;;;;20.15;84.38;98874.03;4991909;28;20050;-64
2021/07/29 03:33:21;;;;;;;9.48;7.57;;;;;;;20.24;84.20;98879.47;5009279;28;20052;-62
2021/07/29 03:35:48;;;;;;;10.00;7.70;;;;;;;20.22;84.33;98877.91;5009874;28;20140;-63
2021/07/29 03:38:14;;;;;;;8.40;7.60;;;;;;;20.44;82.98;98885.91;4974979;28;20128;-64
2021/07/29 03:40:40;;;;;;;8.95;7.50;;;;;;;20.44;82.79;98885.06;5010360;28;20561;-64
2021/07/29 03:43:07;;;;;;;8.48;7.55;;;;;;;20.22;83.38;98880.56;4976264;28;20087;-64
2021/07/29 03:45:35;;;;;;;7.50;6.80;;;;;;;20.39;83.10;98892.53;4960343;28;20069;-64
2021/07/29 03:48:02;;;;;;;10.35;7.95;;;;;;;20.56;81.67;98889.41;4992018;28;20034;-62
2021/07/29 03:50:29;;;;;;;8.52;7.75;;;;;;;20.60;82.07;98880.25;4976574;28;20049;-62
2021/07/29 03:52:55;;;;;;;10.00;6.95;;;;;;;20.69;80.64;98890.13;5009509;28;20060;-64
2021/07/29 03:55:21;;;;;;;10.30;8.13;;;;;;;20.52;81.19;98872.88;4992474;28;20050;-61
2021/07/29 03:57:47;;;;;;;10.57;8.05;;;;;;;20.70;81.04;98890.97;5010122;28;20053;-63
2021/07/29 04:00:13;;;;;;;9.10;8.20;;;;;;;20.73;81.61;98885.44;4992145;28;20050;-62
2021/07/29 04:02:39;;;;;;;10.85;8.27;;;;;;;20.63;81.03;98878.19;5008925;28;20041;-63
2021/07/29 04:05:06;;;;;;;10.18;8.05;;;;;;;20.82;80.18;98866.97;5009604;28;20363;-65
2021/07/29 04:07:33;;;;;;;11.35;8.77;;;;;;;20.71;80.56;98884.69;5009416;28;20041;-64
2021/07/29 04:09:59;;;;;;;11.80;8.98;;;;;;;20.82;80.14;98887.38;5009432;28;20127;-63
2021/07/29 04:12:25;;;;;;;10.65;8.73;;;;;;;20.78;80.11;98893.88;4976771;28;20045;-63
2021/07/29 04:14:51;;;;;;;9.40;8.43;;;;;;;20.82;79.84;98882.06;4977305;28;20057;-65
2021/07/29 04:17:17;;;;;;;11.60;8.65;;;;;;;21.00;79.32;98888.56;5014230;28;20038;-62
2021/07/29 04:19:45;;;;;;;11.02;8.68;;;;;;;21.14;78.63;98890.09;5014006;28;20049;-62
2021/07/29 04:22:11;;;;;;;10.43;8.98;;;;;;;21.17;77.92;98885.38;5012710;28;20038;-64
2021/07/29 04:24:37;;;;;;;8.85;7.95;;;;;;;21.08;78.51;98888.78;4995226;28;20054;-64
2021/07/29 04:27:03;;;;;;;10.30;8.90;;;;;;;20.86;78.76;98889.66;4977748;28;20053;-63
2021/07/29 04:29:34;;;;;;;9.75;8.75;;;;;;;20.79;78.83;98884.94;5012591;28;20104;-64
2021/07/29 04:32:00;;;;;;;10.63;8.43;;;;;;;20.70;78.56;98857.28;5011162;28;20046;-61
2021/07/29 04:34:27;;;;;;;10.82;8.40;;;;;;;20.98;77.72;98879.84;4994636;28;20508;-62
2021/07/29 04:36:52;;;;;;;10.10;8.63;;;;;;;20.97;78.13;98888.81;5011882;28;20050;-63
2021/07/29 04:39:19;;;;;;;11.27;9.07;;;;;;;20.87;78.45;98891.34;4978863;28;20052;-64
2021/07/29 04:41:45;;;;;;;12.68;9.02;;;;;;;20.88;78.55;98884.22;5011698;28;20089;-63
2021/07/29 04:44:12;;;;;;;9.32;8.32;;;;;;;21.07;77.48;98887.09;5012146;28;20065;-63
2021/07/29 04:46:41;;;;;;;8.82;7.93;;;;;;;21.11;77.57;98880.56;5010479;28;20577;-64
2021/07/29 04:49:08;;;;;;;10.50;8.00;;;;;;;21.19;76.91;98880.78;5010838;28;20148;-64
2021/07/29 04:51:35;;;;;;;11.18;8.10;;;;;;;21.17;76.53;98874.75;4994126;28;20049;-62
2021/07/29 04:54:01;;;;;;;9.90;7.68;;;;;;;21.43;75.84;98888.59;4994757;28;20076;-65
2021/07/29 04:56:27;;;;;;;7.85;7.15;;;;;;;21.50;75.68;98884.44;4962945;28;20151;-62
2021/07/29 04:58:53;;;;;;;11.27;9.32;;;;;;;21.34;75.99;98877.84;4962517;28;20053;-63
2021/07/29 05:01:18;;;;;;;12.25;8.85;;;;;;;21.27;76.38;98885.50;4995244;28;20169;-62
2021/07/29 05:03:45;;;;;;;9.65;8.65;;;;;;;21.31;76.26;98881.63;4993829;28;20062;-65
2021/07/29 05:06:11;;;;;;;14.20;10.27;;;;;;;21.12;77.50;98889.38;5013073;28;20131;-63
2021/07/29 05:08:37;;;;;;;11.35;10.15;;;;;;;20.99;78.12;98896.66;4994321;28;20542;-62
2021/07/29 05:11:03;;;;;;;15.05;10.95;;;;;;;20.78;78.74;98877.94;5011023;28;20053;-62
2021/07/29 05:13:29;;;;;;;13.90;11.13;;;;;;;20.78;79.25;98894.72;5011887;28;20045;-63
2021/07/29 05:15:55;;;;;;;13.98;10.98;;;;;;;20.66;79.56;98887.72;4943520;28;20042;-67
2021/07/29 05:18:21;;;;;;;13.85;11.85;;;;;;;20.59;79.50;98897.16;4993178;28;20038;-64
2021/07/29 05:20:46;;;;;;;17.83;12.07;;;;;;;20.58;79.38;98900.78;5010647;28;20050;-65
2021/07/29 05:23:13;;;;;;;13.98;12.20;;;;;;;20.58;79.62;98904.28;4992646;28;20041;-62
2021/07/29 05:25:39;;;;;;;15.52;12.27;;;;;;;20.52;79.44;98891.47;4992122;28;20517;-64
2021/07/29 05:28:05;;;;;;;16.45;11.60;;;;;;;20.58;79.07;98911.41;4990948;28;20046;-63
2021/07/29 05:30:31;;;;;;;12.30;11.05;;;;;;;20.51;79.03;98903.06;4989834;28;20054;-64
2021/07/29 05:32:57;;;;;;;12.90;11.25;;;;;;;20.46;79.03;98899.94;4972232;28;20050;-64
2021/07/29 05:35:23;;;;;;;14.55;12.38;;;;;;;20.48;78.87;98897.16;4940915;28;20046;-64
2021/07/29 05:37:49;;;;;;;17.60;13.13;;;;;;;20.59;79.01;98905.97;4988345;28;20046;-63
2021/07/29 05:40:15;;;;;;;18.02;12.77;;;;;;;20.84;78.42;98909.38;4972719;28;20052;-62
2021/07/29 05:42:41;;;;;;;16.92;12.45;;;;;;;20.85;77.63;98903.94;4988564;28;20042;-64
2021/07/29 05:45:07;;;;;;;14.60;11.82;;;;;;;20.89;77.92;98901.88;4988015;28;20042;-65
2021/07/29 05:47:35;;;;;;;14.75;13.07;;;;;;;20.94;77.51;98899.69;4940620;28;20054;-64
2021/07/29 05:50:01;;;;;;;15.18;12.38;;;;;;;21.04;77.68;98895.31;4988432;28;20392;-63
2021/07/29 05:52:27;;;;;;;18.98;13.35;;;;;;;20.92;78.41;98901.63;4972083;28;20141;-62
2021/07/29 05:54:53;;;;;;;17.55;13.52;;;;;;;20.96;77.84;98899.56;4990737;28;20043;-63
2021/07/29 05:57:19;;;;;;;21.75;13.25;;;;;;;21.07;77.04;98908.38;4973057;28;20042;-63
2021/07/29 05:59:44;;;;;;;18.20;12.35;;;;;;;21.00;77.28;98908.97;4973202;28;20541;-67
2021/07/29 06:02:10;;;;;;;16.75;12.48;;;;;;;20.99;76.95;98913.47;4972911;28;20491;-66
2021/07/29 06:04:36;;;;;;;14.57;11.95;;;;;;;21.00;77.16;98916.97;4992681;28;20045;-69
2021/07/29 06:07:02;;;;;;;14.10;12.30;;;;;;;21.01;76.89;98914.19;4991905;28;20049;-64
2021/07/29 06:09:27;;;;;;;12.55;11.35;;;;;;;21.07;76.96;98911.03;5010096;28;20071;-67
2021/07/29 06:11:53;;;;;;;12.70;11.32;;;;;;;21.16;75.97;98894.31;5009008;28;20056;-62
2021/07/29 06:14:19;;;;;;;11.80;10.60;;;;;;;21.43;75.82;98906.38;5009203;28;20475;-67
2021/07/29 06:16:45;;;;;;;14.88;10.38;;;;;;;21.71;74.35;98905.81;5009496;28;20041;-62
2021/07/29 06:19:29;;;;;;;11.13;9.38;;;;;;;21.91;72.51;98900.63;4991907;28;20111;-63
2021/07/29 06:21:58;;;;;;;12.55;9.88;;;;;;;22.13;71.87;98921.84;4991975;28;20041;-65
2021/07/29 06:24:25;;;;;;;9.43;8.52;;;;;;;22.19;71.05;98905.31;4991645;28;20407;-66
2021/07/29 06:26:52;;;;;;;10.88;9.48;;;;;;;22.17;71.75;98923.25;5008109;28;20038;-66
2021/07/29 06:29:18;;;;;;;12.98;9.05;;;;;;;21.95;72.24;98907.38;4991861;28;20564;-63
2021/07/29 06:31:44;;;;;;;10.07;9.02;;;;;;;22.02;72.16;98928.03;5009113;28;20266;-67
2021/07/29 06:34:09;;;;;;;10.90;9.35;;;;;;;21.71;72.94;98911.13;5007723;28;20569;-66
2021/07/29 06:36:35;;;;;;;11.60;8.70;;;;;;;21.60;73.19;98908.50;4988988;28;20048;-65
2021/07/29 06:39:01;;;;;;;9.40;8.43;;;;;;;21.68;72.63;98923.84;4973975;28;20063;-66
2021/07/29 06:41:29;;;;;;;10.45;9.40;;;;;;;21.74;72.82;98921.53;4989858;28;20046;-66
2021/07/29 06:43:55;;;;;;;11.45;9.02;;;;;;;21.77;72.53;98929.25;5008863;28;20125;-63
2021/07/29 06:46:20;;;;;;;15.85;9.00;;;;;;;21.69;71.85;98913.06;4990770;28;20045;-65
2021/07/29 06:48:48;;;;;;;9.45;8.40;;;;;;;21.79;71.51;98923.78;5009248;28;20038;-64
2021/07/29 06:51:13;;;;;;;10.00;8.57;;;;;;;21.84;71.62;98919.78;4990418;28;20045;-65
2021/07/29 06:53:39;;;;;;;10.43;8.05;;;;;;;21.95;70.99;98926.00;5010073;28;20503;-64
2021/07/29 06:56:06;;;;;;;11.27;7.72;;;;;;;21.74;71.39;98916.19;4990782;28;20045;-66
2021/07/29 06:58:33;;;;;;;12.10;8.73;;;;;;;21.82;71.64;98931.53;4991962;28;20041;-64
2021/07/29 07:01:03;;;;;;;8.82;7.93;;;;;;;21.86;70.66;98924.97;4991734;28;20081;-63
2021/07/29 07:03:29;;;;;;;15.00;8.05;;;;;;;22.05;70.08;98932.28;4992609;28;20124;-64
2021/07/29 07:06:05;;;;;;;11.20;7.65;;;;;;;22.18;69.82;98924.94;4991638;28;20072;-62
2021/07/29 07:08:31;;;;;;;8.30;7.50;;;;;;;22.24;69.28;98924.44;5008718;28;20061;-64
2021/07/29 07:10:58;;;;;;;7.55;6.70;;;;;;;22.21;69.30;98916.69;5009334;28;20517;-63
2021/07/29 07:13:24;;;;;;;13.27;7.68;;;;;;;22.17;69.66;98917.94;4943409;28;20156;-64
2021/07/29 07:15:50;;;;;;;9.32;7.00;;;;;;;22.19;69.94;98929.31;4975667;28;20054;-64
2021/07/29 07:18:16;;;;;;;7.40;6.72;;;;;;;22.35;68.53;98911.06;5010258;28;20044;-63
2021/07/29 07:20:41;;;;;;;11.95;6.20;;;;;;;22.95;66.68;98927.19;5009753;28;20042;-65
2021/07/29 07:23:07;;;;;;;7.90;6.57;;;;;;;24.35;62.05;98934.00;5008800;28;20041;-65
2021/07/29 07:25:37;;;;;;;7.72;5.82;;;;;;;25.33;58.41;98927.31;5009033;28;20514;-63
2021/07/29 07:28:03;;;;;;;8.68;5.80;;;;;;;25.02;59.34;98924.94;4990608;28;20470;-63
2021/07/29 07:30:29;;;;;;;7.95;5.78;;;;;;;24.89;59.62;98926.25;5008100;28;20523;-63
2021/07/29 07:32:55;;;;;;;10.18;6.30;;;;;;;24.64;59.17;98925.91;4972718;28;20054;-63
2021/07/29 07:35:21;;;;;;;6.55;5.65;;;;;;;24.17;60.30;98922.31;4984964;28;20123;-64
2021/07/29 07:37:47;;;;;;;8.48;5.40;;;;;;;24.14;59.59;98924.44;4969709;28;20038;-65
2021/07/29 07:40:13;;;;;;;8.20;5.55;;;;;;;24.20;60.57;98926.53;4969120;28;20034;-63
2021/07/29 07:42:39;;;;;;;7.22;5.05;;;;;;;24.12;60.60;98924.59;4988585;28;20049;-64
2021/07/29 07:45:05;;;;;;;7.70;4.93;;;;;;;24.06;60.71;98927.84;4986963;28;20046;-65
2021/07/29 07:47:32;;;;;;;9.52;5.07;;;;;;;23.93;61.54;98914.78;4987614;28;20611;-63
2021/07/29 07:49:58;;;;;;;5.97;4.80;;;;;;;23.94;61.08;98920.94;4971508;28;20400;-64
2021/07/29 07:52:24;;;;;;;5.32;4.72;;;;;;;24.11;60.18;98933.59;4991056;28;20097;-63
2021/07/29 07:54:49;;;;;;;5.38;4.68;;;;;;;24.21;60.47;98929.06;4990862;28;20173;-65
2021/07/29 07:57:15;;;;;;;6.35;5.32;;;;;;;24.11;61.19;98938.94;4992323;28;20122;-66
2021/07/29 07:59:41;;;;;;;10.52;5.20;;;;;;;24.31;60.66;98948.63;4975308;28;20046;-61
2021/07/29 08:02:07;;;;;;;9.95;5.13;;;;;;;24.46;60.94;98951.69;4993453;28;20105;-64
2021/07/29 08:04:33;;;;;;;10.95;5.43;;;;;;;24.38;61.24;98944.41;4992071;28;20523;-64
2021/07/29 08:06:59;;;;;;;7.40;5.05;;;;;;;24.70;60.11;98948.56;4974582;28;20058;-67
2021/07/29 08:09:25;;;;;;;14.57;5.20;;;;;;;24.87;59.06;98937.09;4992683;28;20042;-65
2021/07/29 08:11:50;;;;;;;5.18;4.60;;;;;;;25.15;57.38;98948.69;4992890;28;20050;-66
2021/07/29 08:14:17;;;;;;;7.03;4.90;;;;;;;25.61;56.11;98944.19;4975351;28;20055;-65
2021/07/29 08:16:42;;;;;;;8.65;4.68;;;;;;;25.76;54.76;98941.84;4959281;28;20046;-65
2021/07/29 08:19:08;;;;;;;6.95;4.57;;;;;;;25.81;53.35;98927.00;4993167;28;20049;-64
2021/07/29 08:21:34;;;;;;;6.65;4.45;;;;;;;25.69;54.50;98938.09;4992952;28;20136;-65
2021/07/29 08:24:01;;;;;;;8.50;4.40;;;;;;;25.42;55.18;98933.59;4959334;28;20197;-64
2021/07/29 08:26:26;;;;;;;5.05;4.55;;;;;;;25.46;55.65;98933.16;4975806;28;20130;-65
2021/07/29 08:28:52;;;;;;;7.32;3.95;;;;;;;25.12;56.33;98938.25;4993162;28;20054;-66
2021/07/29 08:31:19;;;;;;;5.70;4.03;;;;;;;25.22;55.29;98933.69;4992671;28;20048;-65
2021/07/29 08:33:44;;;;;;;7.72;4.40;;;;;;;25.34;54.51;98932.53;4975400;28;20117;-65
2021/07/29 08:36:17;;;;;;;6.72;4.40;;;;;;;26.65;52.39;98945.25;4992860;28;20041;-64
2021/07/29 08:38:44;;;;;;;5.00;4.35;;;;;;;26.70;50.95;98942.94;4959582;28;20069;-63
2021/07/29 08:41:10;;;;;;;16.13;5.38;;;;;;;26.70;51.26;98942.94;4975514;28;20052;-64
2021/07/29 08:43:37;;;;;;;8.63;4.82;;;;;;;26.47;50.83;98937.28;4991711;28;20397;-64
2021/07/29 08:46:04;;;;;;;5.97;3.60;;;;;;;26.44;50.73;98948.31;4991538;28;20097;-65
2021/07/29 08:48:32;;;;;;;4.05;3.65;;;;;;;28.00;46.04;98951.50;4959168;28;20053;-64
2021/07/29 08:50:58;;;;;;;8.25;4.40;;;;;;;28.91;44.21;98942.38;4975312;28;20046;-65
2021/07/29 08:53:24;;;;;;;5.68;3.40;;;;;;;28.28;44.95;98948.53;4975513;28;20046;-64
2021/07/29 08:55:55;;;;;;;10.15;3.95;;;;;;;28.91;43.84;98953.13;4991848;28;20050;-64
2021/07/29 08:58:20;;;;;;;4.63;3.30;;;;;;;28.54;44.88;98951.88;4993306;28;20399;-65
2021/07/29 09:01:09;;;;;;;9.90;3.80;;;;;;;30.08;41.17;98955.78;4992560;28;20046;-65
2021/07/29 09:03:36;;;;;;;5.43;3.47;;;;;;;30.26;40.27;98934.72;4992817;28;20566;-65
2021/07/29 09:06:12;;;;;;;3.42;3.13;;;;;;;30.12;39.13;98931.97;4991887;28;20050;-63
2021/07/29 09:08:48;;;;;;;3.97;2.80;;;;;;;30.29;39.15;98936.22;4975397;28;20082;-63
2021/07/29 09:11:36;;;;;;;5.00;2.90;;;;;;;29.66;40.60;98935.47;4975623;28;20137;-64
2021/07/29 09:14:19;;;;;;;3.60;2.90;;;;;;;28.53;43.00;98934.03;4975486;28;20046;-64
2021/07/29 09:16:54;;;;;;;3.55;2.88;;;;;;;29.10;41.72;98933.91;4975893;28;20513;-64
2021/07/29 09:19:41;;;;;;;5.30;2.97;;;;;;;28.98;41.87;98927.19;4975929;28;20086;-63
2021/07/29 09:22:17;;;;;;;5.47;2.65;;;;;;;28.40;43.47;98931.03;4991112;28;20054;-64
2021/07/29 09:25:04;;;;;;;6.10;2.95;;;;;;;28.08;44.56;98930.00;4990917;28;20061;-63
2021/07/29 09:27:39;;;;;;;3.10;2.60;;;;;;;27.99;44.56;98938.22;4991016;28;20250;-63
2021/07/29 09:30:26;;;;;;;4.85;2.90;;;;;;;27.65;45.74;98931.16;4992269;28;20433;-63
2021/07/29 09:32:56;;;;;;;3.25;2.92;;;;;;;27.34;45.96;98930.84;4991067;28;20057;-64
2021/07/29 09:35:28;;;;;;;3.92;2.80;;;;;;;27.06;47.22;98926.72;4975430;28;20050;-65
2021/07/29 09:37:54;;;;;;;;;;;;;;;27.09;47.28;98934.47;4992773;28;20074;-64
2021/07/29 09:40:20;;;;;;;4.85;3.08;;;;;;;27.07;47.41;98928.41;4991940;28;20360;-64
2021/07/29 09:43:06;;;;;;;4.85;3.10;;;;;;;26.97;47.39;98933.03;4974560;28;20133;-64
2021/07/29 09:45:32;;;;;;;3.97;3.00;;;;;;;26.74;48.82;98922.84;4974898;28;20228;-64
2021/07/29 09:47:57;;;;;;;3.90;3.50;;;;;;;26.93;47.86;98916.41;4990817;28;20129;-62
2021/07/29 09:50:23;;;;;;;4.88;4.38;;;;;;;27.01;48.25;98915.66;4992219;28;20042;-63
2021/07/29 09:52:49;;;;;;;6.80;3.90;;;;;;;27.05;47.45;98919.69;4990574;28;20129;-64
2021/07/29 09:55:15;;;;;;;6.05;3.85;;;;;;;27.33;47.70;98918.44;4992149;28;20097;-64
2021/07/29 09:57:41;;;;;;;6.43;3.50;;;;;;;27.18;47.79;98912.00;4990857;28;20054;-67
2021/07/29 10:00:09;;;;;;;6.40;3.97;;;;;;;27.20;47.60;98902.78;4992035;28;20050;-63
2021/07/29 10:02:38;;;;;;;7.10;3.90;;;;;;;27.25;47.87;98906.81;4974785;28;20042;-64
2021/07/29 10:05:05;;;;;;;6.25;4.35;;;;;;;27.42;48.29;98912.06;4974387;28;20496;-66
2021/07/29 10:07:34;;;;;;;9.07;3.83;;;;;;;27.59;47.19;98917.50;4974318;28;20042;-66
2021/07/29 10:10:03;;;;;;;6.00;4.15;;;;;;;27.72;46.95;98918.72;4974577;28;20437;-66
2021/07/29 10:12:30;;;;;;;4.60;4.20;;;;;;;27.69;47.14;98907.47;4974160;28;20145;-64
2021/07/29 10:14:57;;;;;;;6.93;4.10;;;;;;;27.75;47.03;98913.03;4990027;28;20479;-65
2021/07/29 10:17:35;;;;;;;6.68;4.25;;;;;;;27.50;48.17;98909.44;4990323;28;20042;-65
2021/07/29 10:20:15;;;;;;;5.18;4.78;;;;;;;27.23;48.76;98907.00;4991234;28;20093;-65
2021/07/29 10:22:41;;;;;;;4.82;4.32;;;;;;;27.26;48.83;98906.66;4991724;28;20598;-63
2021/07/29 10:25:07;;;;;;;9.13;4.97;;;;;;;27.42;47.61;98911.22;4973687;28;20062;-64
2021/07/29 10:27:33;;;;;;;7.40;4.50;;;;;;;27.84;47.72;98916.56;4991743;28;20120;-63
2021/07/29 10:30:20;;;;;;;6.40;4.57;;;;;;;28.11;46.34;98924.28;4991427;28;20495;-66
2021/07/29 10:32:47;;;;;;;6.72;4.85;;;;;;;27.96;46.58;98915.22;4990308;28;20460;-65
2021/07/29 10:35:25;;;;;;;5.50;4.57;;;;;;;28.04;46.94;98925.97;4974276;28;20081;-64
2021/07/29 10:37:55;;;;;;;5.25;4.80;;;;;;;27.95;46.83;98921.59;4973949;28;20042;-65
2021/07/29 10:40:37;;;;;;;9.27;5.90;;;;;;;27.87;47.02;98926.97;4991128;28;20049;-65
2021/07/29 10:43:26;;;;;;;9.52;6.90;;;;;;;27.61;47.88;98915.53;4991339;28;20054;-63
2021/07/29 10:45:54;;;;;;;11.82;6.72;;;;;;;27.60;48.17;98921.88;4973187;28;20046;-65
2021/07/29 10:48:47;;;;;;;12.88;6.43;;;;;;;27.49;48.44;98928.38;4973563;28;20065;-65
2021/07/29 10:51:25;;;;;;;7.18;5.68;;;;;;;27.64;49.00;98913.34;4990797;28;20042;-67
2021/07/29 10:53:56;;;;;;;9.98;6.18;;;;;;;28.00;48.18;98921.94;4974443;28;20038;-63
2021/07/29 10:56:24;;;;;;;7.95;5.65;;;;;;;28.13;47.08;98921.41;4989839;28;20077;-66
2021/07/29 10:58:56;;;;;;;6.28;4.88;;;;;;;28.40;47.17;98913.03;4973990;28;20049;-64
2021/07/29 11:01:22;;;;;;;9.32;5.95;;;;;;;28.46;47.30;98916.91;4990248;28;20363;-62
2021/07/29 11:04:07;;;;;;;8.10;5.78;;;;;;;28.34;46.57;98891.38;4975975;28;20050;-63
2021/07/29 11:06:43;;;;;;;7.82;5.40;;;;;;;28.20;46.49;98916.19;4990723;28;20138;-63
2021/07/29 11:09:16;;;;;;;10.80;5.53;;;;;;;28.22;46.89;98920.41;4973333;28;20046;-64
2021/07/29 11:11:50;;;;;;;6.07;5.47;;;;;;;28.08;47.02;98913.88;4989520;28;20097;-65
2021/07/29 11:14:33;;;;;;;7.95;5.40;;;;;;;28.10;47.05;98911.84;4989550;28;20109;-65
2021/07/29 11:17:02;;;;;;;9.00;6.07;;;;;;;28.11;47.08;98912.69;4990944;28;20462;-65
2021/07/29 11:19:28;;;;;;;6.80;5.18;;;;;;;28.23;46.27;98899.72;4973101;28;20064;-66
2021/07/29 11:22:07;;;;;;;5.85;5.32;;;;;;;28.40;45.91;98904.13;4990715;28;20495;-63
2021/07/29 11:24:33;;;;;;;6.22;5.72;;;;;;;28.41;45.59;98908.50;4973822;28;20058;-65
2021/07/29 11:27:00;;;;;;;7.07;5.70;;;;;;;28.14;45.94;98905.13;4960479;28;20069;-64
2021/07/29 11:29:26;;;;;;;7.38;5.57;;;;;;;28.01;46.14;98893.19;4993070;28;20062;-64
2021/07/29 11:31:54;;;;;;;6.28;5.57;;;;;;;27.93;46.33;98896.72;4994827;28;20043;-65